Latest Weather Observations for Katanning RS

IDW60801

Issued at 9:23 am WST Tuesday 14 July 2020 (issued every 10 minutes, with the page automatically refreshed every 10 minutes)

About weather observations | Map of weather stations | Latest weather observations for WA | Other Formats
Station Details ID: 010916 Name: KATANNING Lat: -33.69 Lon: 117.61 Height: 320.0 m
Data from the previous 72 hours. | See also: Recent months at Katanning RS
Date/Time
WST
Temp
°C
App
Temp
°C
Dew
Point
°C
Rel
Hum
%
Delta-T
°C
Wind Press
QNH
hPa
Press
MSL
hPa
Rain since
9am
mm
Dir  Spd
km/h
Gust
km/h
Spd
kts
Gust
kts
14/09:00am 8.4 3.8 5.7 83 1.2 W 19 28 10 15 1010.3 1010.4 11.8
14/08:34am 7.8 0.0 5.1 83 1.2 W 35 56 19 30 1009.7 1009.8 11.6
14/08:30am 7.9 -0.6 5.0 82 1.3 W 39 56 21 30 1009.7 1009.8 11.2
14/08:24am 8.7 2.3 5.3 79 1.6 WNW 28 54 15 29 1009.6 1009.7 10.8
14/08:00am 8.9 3.4 5.8 81 1.4 W 24 39 13 21 1008.3 1008.5 10.8
14/07:43am 9.1 1.9 5.8 80 1.5 W 33 52 18 28 1008.1 1008.2 10.8
14/07:30am 9.4 4.1 6.7 83 1.3 WNW 24 35 13 19 1007.6 1007.7 10.6
14/07:00am 9.5 4.2 6.6 82 1.4 WNW 24 37 13 20 1007.5 1007.6 10.6
14/06:30am 9.7 4.7 6.6 81 1.5 NW 22 33 12 18 1006.5 1006.6 10.6
14/06:00am 9.7 4.4 6.6 81 1.5 NW 24 43 13 23 1005.9 1006.0 10.6
14/05:30am 9.6 2.7 6.5 81 1.5 NW 32 46 17 25 1005.6 1005.8 10.4
14/05:14am 9.7 3.6 6.4 80 1.6 NW 28 52 15 28 1005.9 1006.0 9.8
14/05:00am 9.9 4.6 6.8 81 1.5 NW 24 35 13 19 1006.0 1006.1 9.2
14/04:34am 10.5 4.4 6.5 76 1.9 WNW 28 46 15 25 1004.9 1005.0 8.2
14/04:30am 10.6 4.1 6.4 75 2.0 WNW 30 46 16 25 1004.9 1005.0 8.2
14/04:00am 10.5 3.2 7.0 79 1.7 W 35 48 19 26 1005.1 1005.2 8.2
14/03:36am 12.1 5.9 9.3 83 1.4 NW 32 69 17 37 1004.7 1004.8 8.0
14/03:30am 13.3 7.9 10.8 85 1.3 NNW 30 44 16 24 1003.8 1003.9 6.0
14/03:00am 13.4 8.8 11.1 86 1.2 NNW 26 43 14 23 1004.2 1004.3 4.2
14/02:30am 14.0 8.9 10.6 80 1.8 NNW 28 41 15 22 1004.4 1004.5 1.2
14/02:00am 13.9 8.3 10.3 79 1.9 NNW 30 48 16 26 1004.4 1004.5 1.2
14/01:52am 14.0 8.8 10.4 79 1.9 NNW 28 48 15 26 1004.5 1004.6 1.2
14/01:30am 14.1 8.0 10.3 78 2.0 NNW 33 48 18 26 1004.8 1004.9 1.2
14/01:00am 14.4 8.8 10.2 76 2.2 NNW 30 50 16 27 1005.0 1005.1 1.2
14/12:59am 14.4 9.2 10.2 76 2.2 NNW 28 50 15 27 1005.0 1005.1 1.2
14/12:30am 14.5 8.6 10.5 77 2.1 NNW 32 46 17 25 1005.3 1005.4 1.2
14/12:00am 13.6 10.0 10.6 82 1.6 N 20 28 11 15 1006.2 1006.3 1.2
 
Date/Time
WST
Temp
°C
App
Temp
°C
Dew
Point
°C
Rel
Hum
%
Delta-T
°C
Wind Press
QNH
hPa
Press
MSL
hPa
Rain since
9am
mm
Dir  Spd
km/h
Gust
km/h
Spd
kts
Gust
kts
13/11:30pm 13.3 10.4 11.0 86 1.2 N 17 26 9 14 1006.8 1006.9 1.2
13/11:00pm 13.4 11.0 11.3 87 1.1 N 15 19 8 10 1007.3 1007.4 1.0
13/10:30pm 13.5 10.7 11.2 86 1.2 N 17 22 9 12 1007.9 1008.0 0.8
13/10:00pm 13.7 10.8 10.9 83 1.5 NNW 17 24 9 13 1008.6 1008.8 0.8
13/09:30pm 13.7 10.8 10.9 83 1.5 NNW 17 22 9 12 1009.2 1009.3 0.8
13/09:00pm 13.5 10.1 10.7 83 1.5 N 19 26 10 14 1009.4 1009.5 0.8
13/08:30pm 13.9 10.4 10.9 82 1.6 NNW 20 32 11 17 1009.8 1009.9 0.8
13/08:00pm 13.4 10.8 10.8 84 1.4 N 15 19 8 10 1010.0 1010.1 0.8
13/07:30pm 13.3 11.1 10.7 84 1.4 NNW 13 19 7 10 1010.5 1010.6 0.8
13/07:00pm 13.4 11.1 10.6 83 1.5 N 13 19 7 10 1010.6 1010.7 0.8
13/06:30pm 13.9 11.6 10.5 80 1.8 NW 13 20 7 11 1011.1 1011.3 0.8
13/06:00pm 14.2 11.1 10.4 78 2.0 NW 17 24 9 13 1010.9 1011.1 0.8
13/05:30pm 14.8 11.2 10.6 76 2.2 NW 20 30 11 16 1010.6 1010.7 0.8
13/05:00pm 15.1 12.1 10.7 75 2.4 NNW 17 20 9 11 1010.7 1010.8 0.8
13/04:30pm 15.3 12.8 10.9 75 2.4 NNW 15 20 8 11 1010.6 1010.7 0.8
13/04:00pm 15.8 13.1 11.8 77 2.2 NNW 17 28 9 15 1010.7 1010.8 0.8
13/03:30pm 15.3 12.2 11.7 79 2.0 NNW 19 28 10 15 1010.8 1010.9 0.8
13/03:00pm 15.0 12.8 12.1 83 1.6 NNW 15 24 8 13 1010.8 1010.9 0.8
13/02:30pm 14.8 12.1 11.8 82 1.6 NNW 17 24 9 13 1011.0 1011.2 0.8
13/02:00pm 14.7 11.7 12.0 84 1.5 NNW 19 24 10 13 1011.2 1011.4 0.8
13/01:30pm 14.1 11.9 12.0 87 1.2 NNW 15 20 8 11 1011.4 1011.6 0.8
13/01:00pm 13.3 10.8 11.2 87 1.1 N 15 20 8 11 1011.9 1012.1 0.2
13/12:30pm 13.5 10.7 11.4 87 1.1 N 17 22 9 12 1012.5 1012.6 0.2
13/12:00pm 13.0 9.9 10.4 84 1.4 N 17 24 9 13 1012.8 1012.9 0.2
13/11:30am 12.5 10.2 10.4 87 1.1 NNW 13 20 7 11 1013.4 1013.5 0.2
13/11:00am 11.8 9.3 9.7 87 1.1 NNW 13 19 7 10 1013.9 1014.1 0.2
13/10:30am 11.6 8.6 9.3 86 1.2 NNW 15 20 8 11 1014.2 1014.4 0.2
13/10:00am 11.7 8.3 7.8 77 1.9 N 15 20 8 11 1014.4 1014.6 0.2
13/09:30am 11.6 8.8 8.5 81 1.6 NNW 13 17 7 9 1014.5 1014.7 0.0
13/09:00am 10.6 7.6 7.7 82 1.4 N 13 19 7 10 1014.3 1014.5 2.8
13/08:30am 10.1 7.3 6.8 80 1.6 N 11 15 6 8 1014.2 1014.4 2.8
13/08:00am 9.5 6.7 6.8 83 1.3 N 11 15 6 8 1014.1 1014.3 2.8
13/07:30am 9.7 6.1 6.8 82 1.4 N 15 20 8 11 1014.2 1014.4 2.8
13/07:00am 10.5 7.4 7.4 81 1.5 N 13 19 7 10 1014.0 1014.2 2.8
13/06:30am 11.2 8.2 7.9 80 1.6 NNW 13 19 7 10 1013.9 1014.1 2.8
13/06:00am 11.3 8.8 8.2 81 1.5 NNW 11 17 6 9 1013.7 1013.9 2.8
13/05:30am 11.0 8.0 7.5 79 1.7 NNW 13 19 7 10 1013.5 1013.7 2.8
13/05:00am 10.9 7.9 7.8 81 1.5 N 13 19 7 10 1013.6 1013.8 2.8
13/04:30am 10.6 7.1 7.3 80 1.6 N 15 19 8 10 1013.3 1013.4 2.8
13/04:00am 10.6 7.6 7.8 83 1.4 NNW 13 19 7 10 1013.4 1013.5 2.8
13/03:30am 10.4 7.3 7.1 80 1.6 N 13 19 7 10 1013.5 1013.7 2.8
13/03:00am 9.9 6.2 6.4 79 1.7 NNW 15 22 8 12 1013.7 1013.9 2.8
13/02:30am 9.9 6.7 7.0 82 1.4 NNW 13 19 7 10 1013.6 1013.8 2.4
13/02:00am 9.6 6.2 6.0 78 1.7 NNW 13 20 7 11 1013.7 1013.9 1.6
13/01:30am 8.5 4.9 5.1 79 1.5 NNW 13 17 7 9 1013.8 1014.0 1.2
13/01:00am 9.1 4.7 2.9 65 2.7 NNW 15 22 8 12 1013.9 1014.1 0.6
13/12:30am 10.7 5.5 0.2 48 4.4 NW 17 24 9 13 1013.9 1014.1 0.0
13/12:00am 12.0 5.9 -2.2 37 5.6 NW 20 30 11 16 1014.2 1014.4 0.0
 
Date/Time
WST
Temp
°C
App
Temp
°C
Dew
Point
°C
Rel
Hum
%
Delta-T
°C
Wind Press
QNH
hPa
Press
MSL
hPa
Rain since
9am
mm
Dir  Spd
km/h
Gust
km/h
Spd
kts
Gust
kts
12/11:30pm 12.7 6.2 -2.7 34 6.1 N 22 30 12 16 1013.6 1013.8 0.0
12/11:00pm 12.4 6.3 -2.6 35 5.9 N 20 30 11 16 1013.6 1013.8 0.0
12/10:30pm 11.4 6.3 -1.7 40 5.2 N 15 22 8 12 1013.9 1014.1 0.0
12/10:00pm 10.7 5.3 -1.4 43 4.8 N 17 22 9 12 1013.9 1014.1 0.0
12/09:30pm 10.2 4.9 -0.6 47 4.4 N 17 22 9 12 1014.0 1014.2 0.0
12/09:00pm 10.7 5.4 -0.4 46 4.5 N 17 24 9 13 1014.3 1014.5 0.0
12/08:30pm 10.1 4.5 0.2 50 4.1 N 19 26 10 14 1014.2 1014.4 0.0
12/08:00pm 9.9 4.4 0.3 51 4.0 N 19 24 10 13 1014.5 1014.7 0.0
12/07:30pm 10.4 4.9 0.4 50 4.2 N 19 22 10 12 1014.7 1014.9 0.0
12/07:00pm 10.7 6.0 0.7 50 4.2 N 15 20 8 11 1015.2 1015.4 0.0
12/06:30pm 11.6 7.3 0.7 47 4.6 N 13 19 7 10 1015.1 1015.3 0.0
12/06:00pm 12.5 7.8 0.9 45 5.0 N 15 20 8 11 1015.3 1015.5 0.0
12/05:30pm 12.8 7.3 0.9 44 5.1 N 19 24 10 13 1015.2 1015.4 0.0
12/05:00pm 14.1 9.1 1.1 41 5.7 N 17 22 9 12 1015.8 1015.9 0.0
12/04:30pm 14.7 9.3 1.3 40 5.9 N 19 28 10 15 1015.9 1016.0 0.0
12/04:00pm 15.2 9.9 2.1 41 5.9 N 19 28 10 15 1016.4 1016.6 0.0
12/03:30pm 15.6 9.7 1.4 38 6.3 NNW 22 32 12 17 1016.7 1016.9 0.0
12/03:00pm 15.6 9.5 0.6 36 6.6 N 22 35 12 19 1016.8 1017.0 0.0
12/02:30pm 15.8 10.4 1.5 38 6.4 N 19 30 10 16 1017.0 1017.2 0.0
12/02:00pm 15.4 9.7 0.8 37 6.4 NNW 20 30 11 16 1017.9 1018.1 0.0
12/01:30pm 15.0 8.6 1.2 39 6.1 NNW 24 35 13 19 1018.0 1018.2 0.0
12/01:00pm 14.5 8.2 1.4 41 5.8 N 24 35 13 19 1018.1 1018.3 0.0
12/12:30pm 13.9 8.4 1.9 44 5.3 NNW 20 35 11 19 1019.0 1019.2 0.0
12/12:00pm 13.2 7.4 2.4 48 4.8 N 22 32 12 17 1019.7 1019.9 0.0
12/11:30am 12.2 6.3 1.5 48 4.6 N 22 32 12 17 1020.6 1020.8 0.0
12/11:00am 11.7 5.4 1.6 50 4.3 N 24 39 13 21 1021.3 1021.5 0.0
12/10:30am 10.9 5.1 2.5 56 3.7 N 22 32 12 17 1021.7 1022.0 0.0
12/10:00am 9.1 4.3 2.7 64 2.8 N 17 24 9 13 1022.1 1022.4 0.0
12/09:30am 7.4 3.4 2.7 72 2.0 N 13 17 7 9 1022.4 1022.6 0.0
12/09:00am 6.0 3.2 1.9 75 1.7 NNE 6 9 3 5 1022.9 1023.1 0.4
12/08:30am 3.8 0.7 0.3 78 1.4 NE 6 7 3 4 1022.7 1022.9 0.4
12/08:00am 2.1 -1.3 -0.6 82 1.0 NNE 7 9 4 5 1022.7 1022.9 0.4
12/07:30am 2.4 0.4 -0.4 82 1.0 CALM 0 0 0 0 1022.8 1023.0 0.4
12/07:00am 2.6 -0.2 -0.5 80 1.2 NE 4 6 2 3 1022.7 1022.9 0.4
12/06:30am 2.4 -1.0 -0.5 81 1.1 NE 7 11 4 6 1022.7 1022.9 0.0
12/06:00am 2.6 -0.6 -0.5 80 1.1 N 6 9 3 5 1022.8 1023.0 0.0
12/05:30am 3.1 -0.6 -0.2 79 1.2 N 9 13 5 7 1022.6 1022.8 0.0
12/05:00am 3.9 -0.9 0.4 78 1.3 N 15 20 8 11 1022.6 1022.8 0.0
12/04:30am 3.5 -0.5 0.6 81 1.1 N 11 15 6 8 1023.0 1023.2 0.0
12/04:00am 3.3 -0.7 0.7 83 1.0 N 11 15 6 8 1023.3 1023.5 0.0
12/03:30am 2.7 -0.6 0.4 85 0.9 ENE 7 11 4 6 1023.5 1023.7 0.0
12/03:00am 3.0 -0.2 0.7 85 0.9 ENE 7 9 4 5 1024.2 1024.5 0.0
12/02:30am 3.0 -0.3 0.4 83 1.0 NE 7 11 4 6 1024.4 1024.7 0.0
12/02:00am 4.1 1.2 1.5 83 1.0 NNE 6 7 3 4 1024.7 1025.0 0.0
12/01:30am 4.4 1.9 1.6 82 1.1 NNE 4 6 2 3 1025.1 1025.4 0.0
12/01:00am 4.5 2.0 1.7 82 1.1 N 4 6 2 3 1025.3 1025.6 0.0
12/12:30am 4.6 2.1 1.6 81 1.2 NW 4 6 2 3 1025.4 1025.7 0.0
12/12:00am 4.8 2.7 1.5 79 1.3 NNE 2 6 1 3 1025.6 1025.8 0.0
 
Date/Time
WST
Temp
°C
App
Temp
°C
Dew
Point
°C
Rel
Hum
%
Delta-T
°C
Wind Press
QNH
hPa
Press
MSL
hPa
Rain since
9am
mm
Dir  Spd
km/h
Gust
km/h
Spd
kts
Gust
kts
11/11:30pm 4.7 1.6 1.4 79 1.3 N 7 11 4 6 1026.0 1026.2 0.0
11/11:00pm 5.1 2.6 1.6 78 1.4 NNE 4 6 2 3 1026.2 1026.4 0.0
11/10:30pm 5.4 2.6 1.9 78 1.4 NNE 6 6 3 3 1026.5 1026.7 0.0
11/10:00pm 4.8 1.4 1.7 80 1.2 NNE 9 11 5 6 1026.7 1027.0 0.0
11/09:30pm 4.7 1.6 1.2 78 1.4 NNE 7 9 4 5 1026.9 1027.2 0.0
11/09:00pm 5.7 1.9 1.8 76 1.6 NE 11 13 6 7 1027.1 1027.4 0.0
11/08:30pm 6.0 2.6 2.1 76 1.6 NE 9 13 5 7 1027.1 1027.4 0.0
11/08:00pm 6.3 3.0 2.2 75 1.7 NNE 9 11 5 6 1027.4 1027.7 0.0
11/07:30pm 6.6 3.0 2.7 76 1.6 NE 11 13 6 7 1027.5 1027.8 0.0
11/07:00pm 7.1 3.8 2.4 72 2.0 NNE 9 11 5 6 1027.6 1027.9 0.0
11/06:30pm 7.7 4.9 3.0 72 2.0 NNE 7 9 4 5 1027.7 1028.0 0.0
11/06:00pm 8.2 5.4 3.1 70 2.2 NNE 7 7 4 4 1027.7 1028.0 0.0
11/05:30pm 8.8 6.0 3.2 68 2.4 NE 7 9 4 5 1027.6 1027.9 0.0
11/05:00pm 9.9 7.1 3.4 64 2.9 NNE 7 11 4 6 1027.8 1028.1 0.0
11/04:30pm 11.1 7.6 3.6 60 3.4 NNE 11 15 6 8 1028.0 1028.3 0.0
11/04:00pm 11.7 8.1 3.0 55 3.9 NNE 11 15 6 8 1028.2 1028.5 0.0
11/03:30pm 12.0 8.6 4.0 58 3.7 NE 11 15 6 8 1028.1 1028.4 0.0
11/03:00pm 12.0 8.2 4.0 58 3.6 NNE 13 17 7 9 1028.1 1028.4 0.0
11/02:30pm 11.9 8.2 4.2 59 3.5 NNE 13 19 7 10 1028.2 1028.5 0.0
11/02:00pm 11.7 8.4 4.7 62 3.2 NE 11 17 6 9 1028.6 1028.9 0.0
11/01:30pm 11.4 7.4 4.8 64 3.1 NNE 15 22 8 12 1028.7 1029.0 0.0
11/01:00pm 10.9 6.5 4.6 65 2.9 NE 17 22 9 12 1029.0 1029.2 0.0
11/12:30pm 10.1 5.6 4.0 66 2.7 NE 17 24 9 13 1029.5 1029.8 0.0
11/12:00pm 9.8 5.0 4.6 70 2.3 NE 19 24 10 13 1030.0 1030.3 0.0
11/11:30am 9.0 3.9 4.0 71 2.2 NE 20 28 11 15 1030.7 1031.0 0.0
11/11:00am 8.8 2.9 3.8 71 2.2 NNE 24 32 13 17 1031.1 1031.4 0.0
11/10:30am 8.2 2.3 3.7 73 2.0 NNE 24 32 13 17 1031.4 1031.7 0.0
11/10:00am 7.9 3.5 4.7 80 1.4 NNE 17 22 9 12 1031.8 1032.1 0.0
11/09:30am 7.1 3.0 4.2 82 1.3 NE 15 20 8 11 1031.9 1032.3 0.0

Other formats

Comma delimited format used in spreadsheet applications
http://www.bom.gov.au/fwo/IDW60801/IDW60801.94641.axf

JavaScript Object Notation format (JSON) in row-major order
http://www.bom.gov.au/fwo/IDW60801/IDW60801.94641.json

Data quality

Most of these data are generated automatically and are frequently updated. Quality checks on data are not normally performed. It is possible for incorrect values to appear. Refer to information at About Latest Weather Observations and please check the disclaimer before using these data.